San Diego, California
Current Conditions -  °F | °C
As of 1:23 AM on Saturday 29 Nov 2014 (Local Time) from KSAN Reporting Station
Haze Haze  
Wind Chill: 57°   Ceiling: 400
Heat Index: 57°   Visibility: 2mi
Dew Point: 55°   Wind: 0mph
Humidity: 94%   Direction: NA
Pressure: 29.91"   Gusts: NA
Location:  32.72°N, 117.16°W
Report Text: KSAN 290923Z 00000KT 2SM BR BKN004 14/13 A2991 RMK AO2 VIS SE 3
Loading
Personal Weather Stations






























Interactive Weather Map New forecast layout! Learn more

10-Day Weather Forecast

Advertisements
Track Severe Weather on mobile